sensor_id;sensor_type;location;lat;lon;timestamp;pressure;altitude;pressure_sealevel;temperature;humidity
71735;BME280;59577;52.122;5.406;2023-05-07T00:00:59;101710.44;;;14.66;91.95
71735;BME280;59577;52.122;5.406;2023-05-07T00:03:25;101711.16;;;14.63;92.21
71735;BME280;59577;52.122;5.406;2023-05-07T00:05:53;101713.81;;;14.60;92.18
71735;BME280;59577;52.122;5.406;2023-05-07T00:08:20;101726.28;;;14.61;91.67
71735;BME280;59577;52.122;5.406;2023-05-07T00:10:46;101727.50;;;14.63;91.53
71735;BME280;59577;52.122;5.406;2023-05-07T00:13:13;101720.13;;;14.64;91.50
71735;BME280;59577;52.122;5.406;2023-05-07T00:15:40;101716.16;;;14.61;91.47
71735;BME280;59577;52.122;5.406;2023-05-07T00:18:06;101716.06;;;14.58;91.57
71735;BME280;59577;52.122;5.406;2023-05-07T00:20:33;101716.00;;;14.54;91.66
71735;BME280;59577;52.122;5.406;2023-05-07T00:23:01;101706.59;;;14.52;91.20
71735;BME280;59577;52.122;5.406;2023-05-07T00:25:28;101719.00;;;14.49;91.38
71735;BME280;59577;52.122;5.406;2023-05-07T00:27:54;101710.75;;;14.45;91.75
71735;BME280;59577;52.122;5.406;2023-05-07T00:30:21;101711.47;;;14.42;92.08
71735;BME280;59577;52.122;5.406;2023-05-07T00:32:47;101702.00;;;14.36;92.43
71735;BME280;59577;52.122;5.406;2023-05-07T00:35:15;101707.00;;;14.34;92.59
71735;BME280;59577;52.122;5.406;2023-05-07T00:37:41;101700.84;;;14.37;92.50
71735;BME280;59577;52.122;5.406;2023-05-07T00:40:08;101696.56;;;14.36;91.55
71735;BME280;59577;52.122;5.406;2023-05-07T00:42:35;101695.75;;;14.36;91.76
71735;BME280;59577;52.122;5.406;2023-05-07T00:45:03;101694.97;;;14.35;91.56
71735;BME280;59577;52.122;5.406;2023-05-07T00:47:30;101697.63;;;14.32;91.74
71735;BME280;59577;52.122;5.406;2023-05-07T00:49:57;101690.94;;;14.29;91.83
71735;BME280;59577;52.122;5.406;2023-05-07T00:52:26;101691.66;;;14.26;92.04
71735;BME280;59577;52.122;5.406;2023-05-07T00:54:53;101691.75;;;14.29;91.73
71735;BME280;59577;52.122;5.406;2023-05-07T00:57:20;101691.47;;;14.35;91.53
71735;BME280;59577;52.122;5.406;2023-05-07T00:59:48;101697.34;;;14.37;91.53
71735;BME280;59577;52.122;5.406;2023-05-07T01:02:14;101691.53;;;14.38;91.51
71735;BME280;59577;52.122;5.406;2023-05-07T01:04:41;101691.63;;;14.42;91.43
71735;BME280;59577;52.122;5.406;2023-05-07T01:07:08;101688.09;;;14.41;90.93
71735;BME280;59577;52.122;5.406;2023-05-07T01:09:35;101692.41;;;14.42;90.60
71735;BME280;59577;52.122;5.406;2023-05-07T01:12:03;101687.72;;;14.43;90.67
71735;BME280;59577;52.122;5.406;2023-05-07T01:14:30;101687.72;;;14.43;90.17
71735;BME280;59577;52.122;5.406;2023-05-07T01:16:58;101685.81;;;14.43;90.25
71735;BME280;59577;52.122;5.406;2023-05-07T01:19:25;101684.66;;;14.44;90.41
71735;BME280;59577;52.122;5.406;2023-05-07T01:22:00;101680.72;;;14.42;90.33
71735;BME280;59577;52.122;5.406;2023-05-07T01:24:29;101696.72;;;14.43;90.67
71735;BME280;59577;52.122;5.406;2023-05-07T01:26:55;101690.44;;;14.43;90.52
71735;BME280;59577;52.122;5.406;2023-05-07T01:29:22;101685.81;;;14.43;90.71
71735;BME280;59577;52.122;5.406;2023-05-07T01:31:50;101692.75;;;14.41;90.78
71735;BME280;59577;52.122;5.406;2023-05-07T01:34:19;101687.66;;;14.39;90.93
71735;BME280;59577;52.122;5.406;2023-05-07T01:36:46;101697.06;;;14.42;90.89
71735;BME280;59577;52.122;5.406;2023-05-07T01:39:14;101693.56;;;14.41;90.86
71735;BME280;59577;52.122;5.406;2023-05-07T01:41:42;101686.59;;;14.44;90.76
71735;BME280;59577;52.122;5.406;2023-05-07T01:44:10;101688.59;;;14.47;90.66
71735;BME280;59577;52.122;5.406;2023-05-07T01:46:38;101691.75;;;14.49;90.82
71735;BME280;59577;52.122;5.406;2023-05-07T01:49:05;101698.81;;;14.50;90.38
71735;BME280;59577;52.122;5.406;2023-05-07T01:51:32;101690.25;;;14.52;89.72
71735;BME280;59577;52.122;5.406;2023-05-07T01:53:59;101692.63;;;14.53;89.92
71735;BME280;59577;52.122;5.406;2023-05-07T01:56:26;101696.84;;;14.51;90.13
71735;BME280;59577;52.122;5.406;2023-05-07T01:58:52;101689.81;;;14.49;90.24
71735;BME280;59577;52.122;5.406;2023-05-07T02:01:19;101692.53;;;14.49;90.58
71735;BME280;59577;52.122;5.406;2023-05-07T02:03:47;101690.16;;;14.48;90.53
71735;BME280;59577;52.122;5.406;2023-05-07T02:06:13;101685.88;;;14.47;90.73
71735;BME280;59577;52.122;5.406;2023-05-07T02:08:40;101687.84;;;14.46;90.54
71735;BME280;59577;52.122;5.406;2023-05-07T02:11:06;101695.63;;;14.48;90.61
71735;BME280;59577;52.122;5.406;2023-05-07T02:13:33;101699.50;;;14.47;90.35
71735;BME280;59577;52.122;5.406;2023-05-07T02:16:01;101698.28;;;14.44;90.92
71735;BME280;59577;52.122;5.406;2023-05-07T02:18:28;101692.41;;;14.42;90.96
71735;BME280;59577;52.122;5.406;2023-05-07T02:20:55;101693.97;;;14.43;90.87
71735;BME280;59577;52.122;5.406;2023-05-07T02:23:21;101693.97;;;14.43;90.94
71735;BME280;59577;52.122;5.406;2023-05-07T02:25:48;101684.94;;;14.39;91.50
71735;BME280;59577;52.122;5.406;2023-05-07T02:28:14;101691.53;;;14.38;91.60
71735;BME280;59577;52.122;5.406;2023-05-07T02:30:41;101694.25;;;14.38;91.37
71735;BME280;59577;52.122;5.406;2023-05-07T02:33:08;101687.59;;;14.36;91.46
71735;BME280;59577;52.122;5.406;2023-05-07T02:35:35;101690.31;;;14.36;91.60
71735;BME280;59577;52.122;5.406;2023-05-07T02:38:01;101692.25;;;14.35;91.79
71735;BME280;59577;52.122;5.406;2023-05-07T02:40:28;101688.00;;;14.38;91.84
71735;BME280;59577;52.122;5.406;2023-05-07T02:42:55;101683.78;;;14.40;91.62
71735;BME280;59577;52.122;5.406;2023-05-07T02:45:21;101686.94;;;14.42;91.16
71735;BME280;59577;52.122;5.406;2023-05-07T02:47:47;101678.00;;;14.42;91.17
71735;BME280;59577;52.122;5.406;2023-05-07T02:50:14;101681.84;;;14.41;91.56
71735;BME280;59577;52.122;5.406;2023-05-07T02:52:41;101679.13;;;14.41;91.59
71735;BME280;59577;52.122;5.406;2023-05-07T02:55:08;101677.22;;;14.41;91.91
71735;BME280;59577;52.122;5.406;2023-05-07T02:57:34;101684.22;;;14.42;91.94
71735;BME280;59577;52.122;5.406;2023-05-07T03:00:10;101679.94;;;14.41;91.79
71735;BME280;59577;52.122;5.406;2023-05-07T03:02:37;101688.09;;;14.41;91.72
71735;BME280;59577;52.122;5.406;2023-05-07T03:05:04;101685.28;;;14.38;91.62
71735;BME280;59577;52.122;5.406;2023-05-07T03:07:32;101687.22;;;14.37;91.46
71735;BME280;59577;52.122;5.406;2023-05-07T03:09:58;101683.28;;;14.35;91.51
71735;BME280;59577;52.122;5.406;2023-05-07T03:12:26;101678.91;;;14.30;91.80
71735;BME280;59577;52.122;5.406;2023-05-07T03:14:53;101679.88;;;14.22;92.32
71735;BME280;59577;52.122;5.406;2023-05-07T03:17:20;101680.16;;;14.17;91.89
71735;BME280;59577;52.122;5.406;2023-05-07T03:19:47;101677.09;;;14.18;92.10
71735;BME280;59577;52.122;5.406;2023-05-07T03:22:14;101683.31;;;14.19;92.24
71735;BME280;59577;52.122;5.406;2023-05-07T03:24:40;101670.88;;;14.18;92.51
71735;BME280;59577;52.122;5.406;2023-05-07T03:27:07;101681.69;;;14.14;92.49
71735;BME280;59577;52.122;5.406;2023-05-07T03:29:33;101681.25;;;14.12;91.80
71735;BME280;59577;52.122;5.406;2023-05-07T03:32:00;101680.00;;;14.09;91.71
71735;BME280;59577;52.122;5.406;2023-05-07T03:34:27;101680.78;;;14.10;91.52
71735;BME280;59577;52.122;5.406;2023-05-07T03:36:53;101675.34;;;14.10;91.78
71735;BME280;59577;52.122;5.406;2023-05-07T03:39:20;101677.28;;;14.09;91.19
71735;BME280;59577;52.122;5.406;2023-05-07T03:41:47;101678.88;;;14.10;90.77
71735;BME280;59577;52.122;5.406;2023-05-07T03:44:13;101683.63;;;14.14;90.88
71735;BME280;59577;52.122;5.406;2023-05-07T03:46:40;101681.69;;;14.14;91.29
71735;BME280;59577;52.122;5.406;2023-05-07T03:49:06;101689.50;;;14.16;91.36
71735;BME280;59577;52.122;5.406;2023-05-07T03:51:33;101683.25;;;14.15;91.29
71735;BME280;59577;52.122;5.406;2023-05-07T03:53:59;101679.81;;;14.18;91.29
71735;BME280;59577;52.122;5.406;2023-05-07T03:56:26;101687.97;;;14.18;91.37
71735;BME280;59577;52.122;5.406;2023-05-07T03:58:54;101687.56;;;14.16;90.77
71735;BME280;59577;52.122;5.406;2023-05-07T04:01:20;101686.41;;;14.17;91.60
71735;BME280;59577;52.122;5.406;2023-05-07T04:03:47;101693.34;;;14.15;91.26
71735;BME280;59577;52.122;5.406;2023-05-07T04:06:15;101690.28;;;14.16;91.16
71735;BME280;59577;52.122;5.406;2023-05-07T04:08:43;101697.31;;;14.17;91.36
71735;BME280;59577;52.122;5.406;2023-05-07T04:11:09;101695.38;;;14.18;91.80
71735;BME280;59577;52.122;5.406;2023-05-07T04:13:36;101706.69;;;14.20;91.57
71735;BME280;59577;52.122;5.406;2023-05-07T04:16:04;101694.59;;;14.17;91.50
71735;BME280;59577;52.122;5.406;2023-05-07T04:18:31;101701.25;;;14.20;91.00
71735;BME280;59577;52.122;5.406;2023-05-07T04:20:58;101704.31;;;14.18;91.71
71735;BME280;59577;52.122;5.406;2023-05-07T04:23:24;101704.31;;;14.18;91.93
71735;BME280;59577;52.122;5.406;2023-05-07T04:25:51;101703.53;;;14.18;91.84
71735;BME280;59577;52.122;5.406;2023-05-07T04:28:18;101696.50;;;14.17;91.91
71735;BME280;59577;52.122;5.406;2023-05-07T04:30:44;101700.03;;;14.17;92.28
71735;BME280;59577;52.122;5.406;2023-05-07T04:33:11;101708.97;;;14.18;92.18
71735;BME280;59577;52.122;5.406;2023-05-07T04:35:38;101710.53;;;14.19;91.63
71735;BME280;59577;52.122;5.406;2023-05-07T04:38:04;101701.94;;;14.17;92.18
71735;BME280;59577;52.122;5.406;2023-05-07T04:40:31;101703.53;;;14.18;91.99
71735;BME280;59577;52.122;5.406;2023-05-07T04:42:57;101706.69;;;14.20;91.03
71735;BME280;59577;52.122;5.406;2023-05-07T04:45:24;101702.03;;;14.20;91.87
71735;BME280;59577;52.122;5.406;2023-05-07T04:47:50;101704.31;;;14.18;91.70
71735;BME280;59577;52.122;5.406;2023-05-07T04:50:16;101709.75;;;14.18;91.81
71735;BME280;59577;52.122;5.406;2023-05-07T04:52:45;101708.97;;;14.18;92.16
71735;BME280;59577;52.122;5.406;2023-05-07T04:55:12;101713.72;;;14.21;91.62
71735;BME280;59577;52.122;5.406;2023-05-07T04:57:38;101709.06;;;14.21;91.62
71735;BME280;59577;52.122;5.406;2023-05-07T05:00:07;101718.00;;;14.22;91.77
71735;BME280;59577;52.122;5.406;2023-05-07T05:02:38;101724.97;;;14.19;91.85
71735;BME280;59577;52.122;5.406;2023-05-07T05:05:05;101723.03;;;14.20;92.25
71735;BME280;59577;52.122;5.406;2023-05-07T05:07:31;101723.31;;;14.15;92.89
71735;BME280;59577;52.122;5.406;2023-05-07T05:09:58;101725.50;;;14.09;93.14
71735;BME280;59577;52.122;5.406;2023-05-07T05:12:25;101720.69;;;14.02;93.30
71735;BME280;59577;52.122;5.406;2023-05-07T05:14:51;101721.81;;;14.01;93.76
71735;BME280;59577;52.122;5.406;2023-05-07T05:17:17;101718.22;;;13.97;93.80
71735;BME280;59577;52.122;5.406;2023-05-07T05:19:44;101729.91;;;13.98;94.15
71735;BME280;59577;52.122;5.406;2023-05-07T05:22:11;101736.59;;;14.00;93.81
71735;BME280;59577;52.122;5.406;2023-05-07T05:24:37;101731.50;;;13.99;93.66
71735;BME280;59577;52.122;5.406;2023-05-07T05:27:05;101726.47;;;14.01;94.16
71735;BME280;59577;52.122;5.406;2023-05-07T05:29:31;101732.72;;;14.01;94.04
71735;BME280;59577;52.122;5.406;2023-05-07T05:31:58;101736.25;;;14.02;94.48
71735;BME280;59577;52.122;5.406;2023-05-07T05:34:24;101739.66;;;13.99;94.42
71735;BME280;59577;52.122;5.406;2023-05-07T05:36:51;101738.97;;;14.02;94.74
71735;BME280;59577;52.122;5.406;2023-05-07T05:39:17;101752.66;;;14.05;94.85
71735;BME280;59577;52.122;5.406;2023-05-07T05:41:44;101753.78;;;14.04;94.48
71735;BME280;59577;52.122;5.406;2023-05-07T05:44:10;101757.84;;;14.10;93.90
71735;BME280;59577;52.122;5.406;2023-05-07T05:46:37;101752.13;;;14.16;94.37
71735;BME280;59577;52.122;5.406;2023-05-07T05:49:03;101755.97;;;14.15;94.51
71735;BME280;59577;52.122;5.406;2023-05-07T05:51:30;101759.47;;;14.15;94.83
71735;BME280;59577;52.122;5.406;2023-05-07T05:53:57;101766.59;;;14.20;94.73
71735;BME280;59577;52.122;5.406;2023-05-07T05:56:23;101770.19;;;14.24;95.07
71735;BME280;59577;52.122;5.406;2023-05-07T05:58:50;101757.38;;;14.24;95.48
71735;BME280;59577;52.122;5.406;2023-05-07T06:01:17;101773.00;;;14.27;95.98
71735;BME280;59577;52.122;5.406;2023-05-07T06:03:44;101777.72;;;14.30;95.93
71735;BME280;59577;52.122;5.406;2023-05-07T06:06:10;101772.28;;;14.30;96.08
71735;BME280;59577;52.122;5.406;2023-05-07T06:08:37;101778.53;;;14.31;95.70
71735;BME280;59577;52.122;5.406;2023-05-07T06:11:03;101785.47;;;14.28;95.59
71735;BME280;59577;52.122;5.406;2023-05-07T06:13:30;101786.16;;;14.25;95.76
71735;BME280;59577;52.122;5.406;2023-05-07T06:15:56;101782.31;;;14.26;96.08
71735;BME280;59577;52.122;5.406;2023-05-07T06:18:23;101784.59;;;14.24;96.21
71735;BME280;59577;52.122;5.406;2023-05-07T06:20:49;101781.44;;;14.22;96.44
71735;BME280;59577;52.122;5.406;2023-05-07T06:23:16;101785.81;;;14.27;96.90
71735;BME280;59577;52.122;5.406;2023-05-07T06:25:48;101779.25;;;14.28;97.33
71735;BME280;59577;52.122;5.406;2023-05-07T06:28:16;101778.88;;;14.29;97.49
71735;BME280;59577;52.122;5.406;2023-05-07T06:30:42;101785.13;;;14.30;97.54
71735;BME280;59577;52.122;5.406;2023-05-07T06:33:09;101791.88;;;14.36;97.95
71735;BME280;59577;52.122;5.406;2023-05-07T06:35:36;101780.25;;;14.39;98.16
71735;BME280;59577;52.122;5.406;2023-05-07T06:38:02;101777.09;;;14.37;97.79
71735;BME280;59577;52.122;5.406;2023-05-07T06:40:29;101782.56;;;14.37;98.02
71735;BME280;59577;52.122;5.406;2023-05-07T06:42:55;101783.25;;;14.34;98.01
71735;BME280;59577;52.122;5.406;2023-05-07T06:45:22;101788.69;;;14.34;98.43
71735;BME280;59577;52.122;5.406;2023-05-07T06:47:49;101787.22;;;14.37;98.88
71735;BME280;59577;52.122;5.406;2023-05-07T06:50:16;101786.53;;;14.40;99.15
71735;BME280;59577;52.122;5.406;2023-05-07T06:52:43;101779.13;;;14.40;99.00
71735;BME280;59577;52.122;5.406;2023-05-07T06:55:09;101780.81;;;14.45;99.39
71735;BME280;59577;52.122;5.406;2023-05-07T06:57:37;101780.59;;;14.54;99.27
71735;BME280;59577;52.122;5.406;2023-05-07T07:00:05;101778.84;;;14.61;99.37
71735;BME280;59577;52.122;5.406;2023-05-07T07:02:33;101781.22;;;14.63;98.97
71735;BME280;59577;52.122;5.406;2023-05-07T07:04:59;101784.09;;;14.70;99.45
71735;BME280;59577;52.122;5.406;2023-05-07T07:07:26;101783.81;;;14.75;99.23
71735;BME280;59577;52.122;5.406;2023-05-07T07:09:53;101787.56;;;14.87;99.01
71735;BME280;59577;52.122;5.406;2023-05-07T07:12:19;101786.84;;;15.09;98.70
71735;BME280;59577;52.122;5.406;2023-05-07T07:14:46;101783.69;;;15.27;97.98
71735;BME280;59577;52.122;5.406;2023-05-07T07:17:12;101790.19;;;15.41;97.46
71735;BME280;59577;52.122;5.406;2023-05-07T07:19:38;101786.25;;;15.62;96.96
71735;BME280;59577;52.122;5.406;2023-05-07T07:22:05;101782.56;;;15.74;95.77
71735;BME280;59577;52.122;5.406;2023-05-07T07:24:32;101788.31;;;15.88;95.18
71735;BME280;59577;52.122;5.406;2023-05-07T07:26:58;101783.22;;;15.87;94.02
71735;BME280;59577;52.122;5.406;2023-05-07T07:29:25;101783.94;;;15.84;93.48
71735;BME280;59577;52.122;5.406;2023-05-07T07:31:52;101780.31;;;15.99;94.09
71735;BME280;59577;52.122;5.406;2023-05-07T07:34:19;101786.63;;;16.30;93.63
71735;BME280;59577;52.122;5.406;2023-05-07T07:36:46;101788.91;;;16.51;92.39
71735;BME280;59577;52.122;5.406;2023-05-07T07:39:13;101786.44;;;16.72;91.78
71735;BME280;59577;52.122;5.406;2023-05-07T07:41:39;101786.56;;;17.10;89.67
71735;BME280;59577;52.122;5.406;2023-05-07T07:44:06;101788.59;;;17.17;88.94
71735;BME280;59577;52.122;5.406;2023-05-07T07:46:33;101797.38;;;17.37;88.46
71735;BME280;59577;52.122;5.406;2023-05-07T07:49:00;101796.06;;;17.61;86.97
71735;BME280;59577;52.122;5.406;2023-05-07T07:51:27;101793.34;;;17.61;85.97
71735;BME280;59577;52.122;5.406;2023-05-07T07:53:53;101798.16;;;17.75;84.93
71735;BME280;59577;52.122;5.406;2023-05-07T07:56:20;101797.94;;;17.94;84.38
71735;BME280;59577;52.122;5.406;2023-05-07T07:58:46;101804.03;;;18.21;84.28
71735;BME280;59577;52.122;5.406;2023-05-07T08:01:13;101799.31;;;18.18;82.52
71735;BME280;59577;52.122;5.406;2023-05-07T08:03:39;101808.25;;;18.08;82.71
71735;BME280;59577;52.122;5.406;2023-05-07T08:06:07;101805.47;;;18.04;82.92
71735;BME280;59577;52.122;5.406;2023-05-07T08:08:34;101800.16;;;17.81;82.82
71735;BME280;59577;52.122;5.406;2023-05-07T08:11:00;101810.47;;;17.54;82.79
71735;BME280;59577;52.122;5.406;2023-05-07T08:13:27;101809.47;;;17.32;83.71
71735;BME280;59577;52.122;5.406;2023-05-07T08:15:54;101810.88;;;17.19;84.32
71735;BME280;59577;52.122;5.406;2023-05-07T08:18:20;101811.53;;;17.08;85.46
71735;BME280;59577;52.122;5.406;2023-05-07T08:20:47;101807.13;;;17.00;86.23
71735;BME280;59577;52.122;5.406;2023-05-07T08:23:13;101810.97;;;16.96;86.68
71735;BME280;59577;52.122;5.406;2023-05-07T08:25:40;101815.63;;;16.91;88.72
71735;BME280;59577;52.122;5.406;2023-05-07T08:28:08;101809.22;;;16.80;88.48
71735;BME280;59577;52.122;5.406;2023-05-07T08:30:35;101806.22;;;16.62;89.35
71735;BME280;59577;52.122;5.406;2023-05-07T08:33:02;101807.38;;;16.61;90.29
71735;BME280;59577;52.122;5.406;2023-05-07T08:35:29;101807.81;;;16.63;90.40
71735;BME280;59577;52.122;5.406;2023-05-07T08:37:55;101812.84;;;16.61;91.15
71735;BME280;59577;52.122;5.406;2023-05-07T08:40:24;101816.41;;;16.65;91.72
71735;BME280;59577;52.122;5.406;2023-05-07T08:42:52;101816.41;;;16.65;91.56
71735;BME280;59577;52.122;5.406;2023-05-07T08:45:20;101808.50;;;16.57;91.31
71735;BME280;59577;52.122;5.406;2023-05-07T08:47:52;101811.69;;;16.62;92.25
71735;BME280;59577;52.122;5.406;2023-05-07T08:50:21;101808.63;;;16.67;93.00
71735;BME280;59577;52.122;5.406;2023-05-07T08:52:48;101814.97;;;16.71;93.97
71735;BME280;59577;52.122;5.406;2023-05-07T08:55:14;101810.59;;;16.67;93.00
71735;BME280;59577;52.122;5.406;2023-05-07T08:57:41;101814.31;;;16.55;92.67
71735;BME280;59577;52.122;5.406;2023-05-07T09:00:08;101815.31;;;16.43;92.95
71735;BME280;59577;52.122;5.406;2023-05-07T09:02:35;101821.81;;;16.35;92.88
71735;BME280;59577;52.122;5.406;2023-05-07T09:05:03;101818.94;;;16.24;93.26
71735;BME280;59577;52.122;5.406;2023-05-07T09:07:30;101815.78;;;16.22;94.14
71735;BME280;59577;52.122;5.406;2023-05-07T09:09:57;101811.97;;;16.27;95.47
71735;BME280;59577;52.122;5.406;2023-05-07T09:12:24;101811.53;;;16.25;95.11
71735;BME280;59577;52.122;5.406;2023-05-07T09:14:50;101811.09;;;16.23;95.44
71735;BME280;59577;52.122;5.406;2023-05-07T09:17:17;101822.94;;;16.30;95.51
71735;BME280;59577;52.122;5.406;2023-05-07T09:19:46;101812.53;;;16.40;95.93
71735;BME280;59577;52.122;5.406;2023-05-07T09:22:13;101819.31;;;16.49;95.99
71735;BME280;59577;52.122;5.406;2023-05-07T09:24:40;101813.91;;;16.53;95.23
71735;BME280;59577;52.122;5.406;2023-05-07T09:27:07;101818.91;;;16.47;94.22
71735;BME280;59577;52.122;5.406;2023-05-07T09:29:36;101816.13;;;16.44;93.92
71735;BME280;59577;52.122;5.406;2023-05-07T09:32:06;101820.69;;;16.36;93.95
71735;BME280;59577;52.122;5.406;2023-05-07T09:34:33;101822.53;;;16.28;93.70
71735;BME280;59577;52.122;5.406;2023-05-07T09:37:04;101822.22;;;16.33;93.68
71735;BME280;59577;52.122;5.406;2023-05-07T09:39:42;101820.00;;;16.43;94.05
71735;BME280;59577;52.122;5.406;2023-05-07T09:42:09;101820.38;;;16.41;93.77
71735;BME280;59577;52.122;5.406;2023-05-07T09:44:38;101815.63;;;16.38;93.03
71735;BME280;59577;52.122;5.406;2023-05-07T09:47:05;101823.41;;;16.36;93.15
71735;BME280;59577;52.122;5.406;2023-05-07T09:49:37;101819.28;;;16.46;93.56
71735;BME280;59577;52.122;5.406;2023-05-07T09:52:05;101821.78;;;16.58;92.97
71735;BME280;59577;52.122;5.406;2023-05-07T09:54:32;101828.09;;;16.62;92.44
71735;BME280;59577;52.122;5.406;2023-05-07T09:57:01;101832.00;;;16.61;92.78
71735;BME280;59577;52.122;5.406;2023-05-07T09:59:31;101830.13;;;16.69;93.02
71735;BME280;59577;52.122;5.406;2023-05-07T10:01:59;101829.00;;;16.70;91.97
71735;BME280;59577;52.122;5.406;2023-05-07T10:04:30;101834.00;;;16.68;91.95
71735;BME280;59577;52.122;5.406;2023-05-07T10:06:57;101842.75;;;16.77;91.74
71735;BME280;59577;52.122;5.406;2023-05-07T10:09:26;101841.06;;;16.96;91.81
71735;BME280;59577;52.122;5.406;2023-05-07T10:11:52;101842.41;;;17.09;90.98
71735;BME280;59577;52.122;5.406;2023-05-07T10:14:21;101843.38;;;17.24;90.84
71735;BME280;59577;52.122;5.406;2023-05-07T10:16:48;101843.16;;;17.40;90.20
71735;BME280;59577;52.122;5.406;2023-05-07T10:19:14;101841.28;;;17.47;90.06
71735;BME280;59577;52.122;5.406;2023-05-07T10:21:51;101844.91;;;17.55;89.49
71735;BME280;59577;52.122;5.406;2023-05-07T10:24:25;101844.22;;;17.65;89.09
71735;BME280;59577;52.122;5.406;2023-05-07T10:26:53;101845.09;;;17.77;88.18
71735;BME280;59577;52.122;5.406;2023-05-07T10:32:38;101846.50;;;17.97;87.06
71735;BME280;59577;52.122;5.406;2023-05-07T10:35:26;101836.16;;;18.21;86.26
71735;BME280;59577;52.122;5.406;2023-05-07T10:37:57;101835.44;;;18.31;84.43
71735;BME280;59577;52.122;5.406;2023-05-07T10:40:23;101844.53;;;18.46;84.31
71735;BME280;59577;52.122;5.406;2023-05-07T10:42:58;101841.59;;;18.73;83.85
71735;BME280;59577;52.122;5.406;2023-05-07T10:45:28;101841.00;;;19.12;83.42
71735;BME280;59577;52.122;5.406;2023-05-07T10:48:15;101839.19;;;19.52;82.13
71735;BME280;59577;52.122;5.406;2023-05-07T10:50:47;101831.81;;;19.92;79.26
71735;BME280;59577;52.122;5.406;2023-05-07T10:55:46;101839.66;;;20.26;76.52
71735;BME280;59577;52.122;5.406;2023-05-07T10:58:29;101843.97;;;20.31;76.92
71735;BME280;59577;52.122;5.406;2023-05-07T11:01:02;101831.78;;;20.39;74.75
71735;BME280;59577;52.122;5.406;2023-05-07T11:03:29;101829.00;;;20.57;73.36
71735;BME280;59577;52.122;5.406;2023-05-07T11:06:15;101830.59;;;20.51;74.83
71735;BME280;59577;52.122;5.406;2023-05-07T11:11:18;101825.91;;;20.26;75.42
71735;BME280;59577;52.122;5.406;2023-05-07T11:13:47;101829.44;;;20.16;74.51
71735;BME280;59577;52.122;5.406;2023-05-07T11:16:20;101838.09;;;20.32;76.03
71735;BME280;59577;52.122;5.406;2023-05-07T11:18:49;101834.94;;;20.41;73.79
71735;BME280;59577;52.122;5.406;2023-05-07T11:21:35;101831.00;;;20.49;74.62
71735;BME280;59577;52.122;5.406;2023-05-07T11:24:11;101840.78;;;20.72;74.68
71735;BME280;59577;52.122;5.406;2023-05-07T11:26:43;101847.09;;;20.69;73.55
71735;BME280;59577;52.122;5.406;2023-05-07T11:29:18;101846.31;;;20.68;73.07
71735;BME280;59577;52.122;5.406;2023-05-07T11:31:54;101844.66;;;20.92;73.87
71735;BME280;59577;52.122;5.406;2023-05-07T11:34:26;101839.44;;;21.16;72.75
71735;BME280;59577;52.122;5.406;2023-05-07T11:36:52;101847.16;;;21.53;73.97
71735;BME280;59577;52.122;5.406;2023-05-07T11:39:26;101845.50;;;21.67;71.54
71735;BME280;59577;52.122;5.406;2023-05-07T11:41:53;101841.53;;;21.68;70.34
71735;BME280;59577;52.122;5.406;2023-05-07T11:44:19;101838.22;;;21.94;70.96
71735;BME280;59577;52.122;5.406;2023-05-07T11:46:46;101840.19;;;21.90;69.54
71735;BME280;59577;52.122;5.406;2023-05-07T11:49:12;101842.75;;;21.67;69.24
71735;BME280;59577;52.122;5.406;2023-05-07T11:51:39;101836.72;;;21.83;71.98
71735;BME280;59577;52.122;5.406;2023-05-07T11:54:08;101839.66;;;22.10;70.09
71735;BME280;59577;52.122;5.406;2023-05-07T11:56:35;101835.53;;;21.87;68.88
71735;BME280;59577;52.122;5.406;2023-05-07T11:59:02;101848.72;;;21.58;68.46
71735;BME280;59577;52.122;5.406;2023-05-07T12:01:28;101843.91;;;21.66;70.39
71735;BME280;59577;52.122;5.406;2023-05-07T12:03:55;101837.84;;;21.89;70.70
71735;BME280;59577;52.122;5.406;2023-05-07T12:06:21;101840.72;;;21.74;69.20
71735;BME280;59577;52.122;5.406;2023-05-07T12:08:48;101842.66;;;21.77;68.48
71735;BME280;59577;52.122;5.406;2023-05-07T12:11:25;101846.44;;;22.02;69.75
71735;BME280;59577;52.122;5.406;2023-05-07T12:13:53;101843.88;;;22.22;69.29
71735;BME280;59577;52.122;5.406;2023-05-07T12:16:24;101851.06;;;22.57;68.37
71735;BME280;59577;52.122;5.406;2023-05-07T12:18:51;101841.28;;;22.87;67.50
71735;BME280;59577;52.122;5.406;2023-05-07T12:21:21;101836.91;;;23.51;64.76
71735;BME280;59577;52.122;5.406;2023-05-07T12:23:49;101839.16;;;23.33;65.78
71735;BME280;59577;52.122;5.406;2023-05-07T12:26:16;101838.75;;;23.31;64.24
71735;BME280;59577;52.122;5.406;2023-05-07T12:28:43;101837.88;;;23.10;63.60
71735;BME280;59577;52.122;5.406;2023-05-07T12:31:09;101845.41;;;23.06;64.00
71735;BME280;59577;52.122;5.406;2023-05-07T12:33:36;101846.75;;;23.25;63.56
71735;BME280;59577;52.122;5.406;2023-05-07T12:36:06;101839.84;;;23.09;63.88
71735;BME280;59577;52.122;5.406;2023-05-07T12:38:40;101834.59;;;23.19;62.84
71735;BME280;59577;52.122;5.406;2023-05-07T12:41:09;101831.78;;;23.22;62.43
71735;BME280;59577;52.122;5.406;2023-05-07T12:43:36;101837.53;;;23.35;62.74
71735;BME280;59577;52.122;5.406;2023-05-07T12:46:04;101832.47;;;23.57;62.22
71735;BME280;59577;52.122;5.406;2023-05-07T12:48:32;101837.47;;;23.39;61.55
71735;BME280;59577;52.122;5.406;2023-05-07T12:51:00;101835.13;;;23.10;61.90
71735;BME280;59577;52.122;5.406;2023-05-07T12:53:28;101833.59;;;23.05;61.16
71735;BME280;59577;52.122;5.406;2023-05-07T12:55:56;101849.50;;;22.90;61.16
71735;BME280;59577;52.122;5.406;2023-05-07T12:58:33;101842.13;;;22.80;61.30
71735;BME280;59577;52.122;5.406;2023-05-07T13:01:03;101844.44;;;22.85;58.58